sensor_id;sensor_type;location;lat;lon;timestamp;pressure;altitude;pressure_sealevel;temperature;humidity
57114;BME280;42994;51.606;9.988;2022-09-30T00:00:54;98324.63;;;3.65;100.00
57114;BME280;42994;51.606;9.988;2022-09-30T00:03:22;98325.31;;;3.67;100.00
57114;BME280;42994;51.606;9.988;2022-09-30T00:05:55;98327.75;;;3.69;100.00
57114;BME280;42994;51.606;9.988;2022-09-30T00:08:22;98329.09;;;3.64;100.00
57114;BME280;42994;51.606;9.988;2022-09-30T00:10:57;98333.91;;;3.61;100.00
57114;BME280;42994;51.606;9.988;2022-09-30T00:13:24;98327.75;;;3.52;100.00
57114;BME280;42994;51.606;9.988;2022-09-30T00:15:51;98334.03;;;3.43;100.00
57114;BME280;42994;51.606;9.988;2022-09-30T00:18:17;98341.44;;;3.23;100.00
57114;BME280;42994;51.606;9.988;2022-09-30T00:20:45;98347.28;;;3.35;100.00
57114;BME280;42994;51.606;9.988;2022-09-30T00:23:12;98346.59;;;3.41;100.00
57114;BME280;42994;51.606;9.988;2022-09-30T00:25:39;98348.78;;;3.45;100.00
57114;BME280;42994;51.606;9.988;2022-09-30T00:28:05;98350.44;;;3.46;100.00
57114;BME280;42994;51.606;9.988;2022-09-30T00:30:32;98348.44;;;3.49;100.00
57114;BME280;42994;51.606;9.988;2022-09-30T00:32:59;98346.97;;;3.38;100.00
57114;BME280;42994;51.606;9.988;2022-09-30T00:35:26;98348.59;;;3.39;100.00
57114;BME280;42994;51.606;9.988;2022-09-30T00:37:54;98351.09;;;3.40;100.00
57114;BME280;42994;51.606;9.988;2022-09-30T00:40:21;98344.97;;;3.40;100.00
57114;BME280;42994;51.606;9.988;2022-09-30T00:42:48;98347.28;;;3.35;100.00
57114;BME280;42994;51.606;9.988;2022-09-30T00:45:14;98343.81;;;3.34;100.00
57114;BME280;42994;51.606;9.988;2022-09-30T00:47:48;98350.72;;;3.27;100.00
57114;BME280;42994;51.606;9.988;2022-09-30T00:50:41;98339.94;;;3.20;100.00
57114;BME280;42994;51.606;9.988;2022-09-30T00:53:15;98348.56;;;3.22;100.00
57114;BME280;42994;51.606;9.988;2022-09-30T00:55:47;98346.22;;;3.19;100.00
57114;BME280;42994;51.606;9.988;2022-09-30T00:58:17;98346.22;;;3.19;100.00
57114;BME280;42994;51.606;9.988;2022-09-30T01:00:46;98341.94;;;3.18;100.00
57114;BME280;42994;51.606;9.988;2022-09-30T01:03:14;98340.41;;;3.16;100.00
57114;BME280;42994;51.606;9.988;2022-09-30T01:05:41;98346.66;;;3.06;100.00
57114;BME280;42994;51.606;9.988;2022-09-30T01:08:09;98343.88;;;3.08;100.00
57114;BME280;42994;51.606;9.988;2022-09-30T01:10:38;98346.16;;;3.03;100.00
57114;BME280;42994;51.606;9.988;2022-09-30T01:13:04;98345.69;;;3.07;100.00
57114;BME280;42994;51.606;9.988;2022-09-30T01:15:46;98345.19;;;3.04;100.00
57114;BME280;42994;51.606;9.988;2022-09-30T01:18:21;98344.31;;;2.95;100.00
57114;BME280;42994;51.606;9.988;2022-09-30T01:21:07;98344.16;;;2.97;100.00
57114;BME280;42994;51.606;9.988;2022-09-30T01:23:59;98346.81;;;2.97;100.00
57114;BME280;42994;51.606;9.988;2022-09-30T01:26:55;98344.16;;;2.97;100.00
57114;BME280;42994;51.606;9.988;2022-09-30T01:32:54;98344.06;;;2.72;100.00
57114;BME280;42994;51.606;9.988;2022-09-30T01:35:30;98340.41;;;2.73;100.00
57114;BME280;42994;51.606;9.988;2022-09-30T01:38:03;98347.75;;;2.79;100.00
57114;BME280;42994;51.606;9.988;2022-09-30T01:40:39;98348.34;;;2.65;100.00
57114;BME280;42994;51.606;9.988;2022-09-30T01:43:13;98348.22;;;2.75;100.00
57114;BME280;42994;51.606;9.988;2022-09-30T01:45:45;98361.94;;;2.78;100.00
57114;BME280;42994;51.606;9.988;2022-09-30T01:48:20;98356.16;;;2.75;100.00
57114;BME280;42994;51.606;9.988;2022-09-30T01:50:51;98351.00;;;2.73;100.00
57114;BME280;42994;51.606;9.988;2022-09-30T01:53:25;98354.47;;;2.74;100.00
57114;BME280;42994;51.606;9.988;2022-09-30T01:55:57;98360.25;;;2.69;100.00
57114;BME280;42994;51.606;9.988;2022-09-30T01:58:36;98368.97;;;2.61;100.00
57114;BME280;42994;51.606;9.988;2022-09-30T02:01:08;98359.53;;;2.59;100.00
57114;BME280;42994;51.606;9.988;2022-09-30T02:03:40;98355.75;;;2.61;100.00
57114;BME280;42994;51.606;9.988;2022-09-30T02:06:12;98361.50;;;2.57;100.00
57114;BME280;42994;51.606;9.988;2022-09-30T02:08:45;98362.16;;;2.59;100.00
57114;BME280;42994;51.606;9.988;2022-09-30T02:11:17;98361.72;;;2.63;100.00
57114;BME280;42994;51.606;9.988;2022-09-30T02:13:48;98360.19;;;2.61;100.00
57114;BME280;42994;51.606;9.988;2022-09-30T02:16:21;98359.53;;;2.59;100.00
57114;BME280;42994;51.606;9.988;2022-09-30T02:18:52;98358.84;;;2.57;100.00
57114;BME280;42994;51.606;9.988;2022-09-30T02:21:22;98355.69;;;2.53;100.00
57114;BME280;42994;51.606;9.988;2022-09-30T02:23:52;98363.94;;;2.50;100.00
57114;BME280;42994;51.606;9.988;2022-09-30T02:26:24;98360.47;;;2.49;100.00
57114;BME280;42994;51.606;9.988;2022-09-30T02:28:55;98349.22;;;2.47;100.00
57114;BME280;42994;51.606;9.988;2022-09-30T02:31:27;98354.81;;;2.44;100.00
57114;BME280;42994;51.606;9.988;2022-09-30T02:34:00;98346.88;;;2.44;100.00
57114;BME280;42994;51.606;9.988;2022-09-30T02:36:33;98349.63;;;2.35;100.00
57114;BME280;42994;51.606;9.988;2022-09-30T02:39:05;98353.31;;;2.42;100.00
57114;BME280;42994;51.606;9.988;2022-09-30T02:41:37;98349.84;;;2.41;100.00
57114;BME280;42994;51.606;9.988;2022-09-30T02:44:07;98357.63;;;2.43;100.00
57114;BME280;42994;51.606;9.988;2022-09-30T02:46:41;98362.41;;;2.39;100.00
57114;BME280;42994;51.606;9.988;2022-09-30T02:49:17;98364.06;;;2.40;100.00
57114;BME280;42994;51.606;9.988;2022-09-30T02:51:55;98364.34;;;2.37;100.00
57114;BME280;42994;51.606;9.988;2022-09-30T02:54:31;98367.63;;;2.31;100.00
57114;BME280;42994;51.606;9.988;2022-09-30T02:57:06;98366.47;;;2.07;100.00
57114;BME280;42994;51.606;9.988;2022-09-30T02:59:37;98370.63;;;2.10;100.00
57114;BME280;42994;51.606;9.988;2022-09-30T03:02:04;98379.75;;;2.16;100.00
57114;BME280;42994;51.606;9.988;2022-09-30T03:04:33;98379.69;;;2.07;100.00
57114;BME280;42994;51.606;9.988;2022-09-30T03:07:01;98389.34;;;2.17;100.00
57114;BME280;42994;51.606;9.988;2022-09-30T03:09:27;98384.19;;;2.15;100.00
57114;BME280;42994;51.606;9.988;2022-09-30T03:12:00;98385.78;;;2.08;100.00
57114;BME280;42994;51.606;9.988;2022-09-30T03:14:44;98389.66;;;2.14;100.00
57114;BME280;42994;51.606;9.988;2022-09-30T03:17:44;98390.34;;;2.16;100.00
57114;BME280;42994;51.606;9.988;2022-09-30T03:20:33;98390.47;;;2.14;100.00
57114;BME280;42994;51.606;9.988;2022-09-30T03:23:22;98391.56;;;1.85;100.00
57114;BME280;42994;51.606;9.988;2022-09-30T03:25:59;98394.72;;;1.71;100.00
57114;BME280;42994;51.606;9.988;2022-09-30T03:28:35;98402.41;;;1.82;100.00
57114;BME280;42994;51.606;9.988;2022-09-30T03:31:14;98411.94;;;1.93;100.00
57114;BME280;42994;51.606;9.988;2022-09-30T03:33:49;98419.56;;;1.96;100.00
57114;BME280;42994;51.606;9.988;2022-09-30T03:36:26;98414.97;;;1.98;100.00
57114;BME280;42994;51.606;9.988;2022-09-30T03:39:00;98418.94;;;2.02;100.00
57114;BME280;42994;51.606;9.988;2022-09-30T03:41:33;98420.91;;;2.00;100.00
57114;BME280;42994;51.606;9.988;2022-09-30T03:44:04;98420.91;;;2.00;100.00
57114;BME280;42994;51.606;9.988;2022-09-30T03:46:37;98419.34;;;1.89;100.00
57114;BME280;42994;51.606;9.988;2022-09-30T03:49:08;98429.22;;;1.87;100.00
57114;BME280;42994;51.606;9.988;2022-09-30T03:51:40;98431.88;;;1.87;100.00
57114;BME280;42994;51.606;9.988;2022-09-30T03:54:07;98425.91;;;1.85;100.00
57114;BME280;42994;51.606;9.988;2022-09-30T03:56:35;98439.13;;;1.85;100.00
57114;BME280;42994;51.606;9.988;2022-09-30T03:59:09;98436.34;;;1.87;100.00
57114;BME280;42994;51.606;9.988;2022-09-30T04:01:36;98428.41;;;1.87;100.00
57114;BME280;42994;51.606;9.988;2022-09-30T04:04:03;98434.38;;;1.89;100.00
57114;BME280;42994;51.606;9.988;2022-09-30T04:06:30;98435.19;;;1.89;100.00
57114;BME280;42994;51.606;9.988;2022-09-30T04:08:58;98431.13;;;1.77;100.00
57114;BME280;42994;51.606;9.988;2022-09-30T04:11:24;98440.06;;;1.48;100.00
57114;BME280;42994;51.606;9.988;2022-09-30T04:13:51;98434.38;;;1.43;100.00
57114;BME280;42994;51.606;9.988;2022-09-30T04:16:18;98436.38;;;1.59;100.00
57114;BME280;42994;51.606;9.988;2022-09-30T04:18:44;98436.47;;;1.67;100.00
57114;BME280;42994;51.606;9.988;2022-09-30T04:21:13;98438.28;;;1.67;100.00
57114;BME280;42994;51.606;9.988;2022-09-30T04:23:41;98442.97;;;1.73;100.00
57114;BME280;42994;51.606;9.988;2022-09-30T04:26:12;98448.25;;;1.73;100.00
57114;BME280;42994;51.606;9.988;2022-09-30T04:28:39;98451.75;;;1.73;100.00
57114;BME280;42994;51.606;9.988;2022-09-30T04:31:05;98447.28;;;1.74;100.00
57114;BME280;42994;51.606;9.988;2022-09-30T04:33:33;98448.09;;;1.75;100.00
57114;BME280;42994;51.606;9.988;2022-09-30T04:36:00;98450.06;;;1.72;100.00
57114;BME280;42994;51.606;9.988;2022-09-30T04:38:26;98450.75;;;1.75;100.00
57114;BME280;42994;51.606;9.988;2022-09-30T04:40:54;98444.63;;;1.74;100.00
57114;BME280;42994;51.606;9.988;2022-09-30T04:43:23;98463.13;;;1.74;100.00
57114;BME280;42994;51.606;9.988;2022-09-30T04:45:51;98472.56;;;1.77;100.00
57114;BME280;42994;51.606;9.988;2022-09-30T04:48:19;98473.69;;;1.74;100.00
57114;BME280;42994;51.606;9.988;2022-09-30T04:50:47;98475.50;;;1.73;100.00
57114;BME280;42994;51.606;9.988;2022-09-30T04:53:14;98481.63;;;1.74;100.00
57114;BME280;42994;51.606;9.988;2022-09-30T04:55:41;98482.38;;;1.66;100.00
57114;BME280;42994;51.606;9.988;2022-09-30T04:58:08;98484.56;;;1.71;100.00
57114;BME280;42994;51.606;9.988;2022-09-30T05:00:36;98487.72;;;1.75;100.00
57114;BME280;42994;51.606;9.988;2022-09-30T05:03:03;98485.22;;;1.73;100.00
57114;BME280;42994;51.606;9.988;2022-09-30T05:05:31;98495.66;;;1.75;100.00
57114;BME280;42994;51.606;9.988;2022-09-30T05:07:59;98490.66;;;1.71;100.00
57114;BME280;42994;51.606;9.988;2022-09-30T05:10:26;98485.22;;;1.73;100.00
57114;BME280;42994;51.606;9.988;2022-09-30T05:12:54;98488.47;;;1.67;100.00
57114;BME280;42994;51.606;9.988;2022-09-30T05:15:22;98498.50;;;1.63;100.00
57114;BME280;42994;51.606;9.988;2022-09-30T05:17:50;98497.81;;;1.61;100.00
57114;BME280;42994;51.606;9.988;2022-09-30T05:20:17;98502.28;;;1.61;100.00
57114;BME280;42994;51.606;9.988;2022-09-30T05:22:44;98510.22;;;1.61;100.00
57114;BME280;42994;51.606;9.988;2022-09-30T05:25:11;98512.13;;;1.59;100.00
57114;BME280;42994;51.606;9.988;2022-09-30T05:27:38;98513.28;;;1.56;100.00
57114;BME280;42994;51.606;9.988;2022-09-30T05:30:05;98519.91;;;1.60;100.00
57114;BME280;42994;51.606;9.988;2022-09-30T05:32:32;98526.19;;;1.59;100.00
57114;BME280;42994;51.606;9.988;2022-09-30T05:35:01;98528.16;;;1.57;100.00
57114;BME280;42994;51.606;9.988;2022-09-30T05:37:27;98526.13;;;1.41;100.00
57114;BME280;42994;51.606;9.988;2022-09-30T05:39:54;98529.66;;;1.22;100.00
57114;BME280;42994;51.606;9.988;2022-09-30T05:42:21;98533.66;;;1.36;100.00
57114;BME280;42994;51.606;9.988;2022-09-30T05:44:48;98529.75;;;1.40;100.00
57114;BME280;42994;51.606;9.988;2022-09-30T05:47:14;98531.81;;;1.46;100.00
57114;BME280;42994;51.606;9.988;2022-09-30T05:49:41;98537.78;;;1.48;100.00
57114;BME280;42994;51.606;9.988;2022-09-30T05:52:10;98535.69;;;1.52;100.00
57114;BME280;42994;51.606;9.988;2022-09-30T05:54:37;98535.53;;;1.53;100.00
57114;BME280;42994;51.606;9.988;2022-09-30T05:57:04;98537.47;;;1.51;100.00
57114;BME280;42994;51.606;9.988;2022-09-30T05:59:32;98534.06;;;1.41;100.00
57114;BME280;42994;51.606;9.988;2022-09-30T06:01:58;98542.53;;;1.45;100.00
57114;BME280;42994;51.606;9.988;2022-09-30T06:04:25;98543.09;;;1.39;100.00
57114;BME280;42994;51.606;9.988;2022-09-30T06:06:52;98544.34;;;1.44;100.00
57114;BME280;42994;51.606;9.988;2022-09-30T06:09:20;98548.69;;;1.36;100.00
57114;BME280;42994;51.606;9.988;2022-09-30T06:11:46;98548.09;;;1.42;100.00
57114;BME280;42994;51.606;9.988;2022-09-30T06:14:13;98551.28;;;1.45;100.00
57114;BME280;42994;51.606;9.988;2022-09-30T06:16:41;98553.31;;;1.51;100.00
57114;BME280;42994;51.606;9.988;2022-09-30T06:19:07;98553.03;;;1.54;100.00
57114;BME280;42994;51.606;9.988;2022-09-30T06:21:34;98563.47;;;1.56;100.00
57114;BME280;42994;51.606;9.988;2022-09-30T06:24:01;98561.22;;;1.61;100.00
57114;BME280;42994;51.606;9.988;2022-09-30T06:26:29;98571.50;;;1.64;100.00
57114;BME280;42994;51.606;9.988;2022-09-30T06:28:55;98569.56;;;1.66;100.00
57114;BME280;42994;51.606;9.988;2022-09-30T06:31:22;98576.88;;;1.72;100.00
57114;BME280;42994;51.606;9.988;2022-09-30T06:33:51;98575.91;;;1.73;100.00
57114;BME280;42994;51.606;9.988;2022-09-30T06:36:17;98572.28;;;1.75;100.00
57114;BME280;42994;51.606;9.988;2022-09-30T06:38:47;98570.78;;;1.72;100.00
57114;BME280;42994;51.606;9.988;2022-09-30T06:41:15;98572.75;;;1.70;100.00
57114;BME280;42994;51.606;9.988;2022-09-30T06:43:43;98584.81;;;1.72;100.00
57114;BME280;42994;51.606;9.988;2022-09-30T06:46:10;98587.75;;;1.69;100.00
57114;BME280;42994;51.606;9.988;2022-09-30T06:48:37;98595.66;;;1.69;100.00
57114;BME280;42994;51.606;9.988;2022-09-30T06:51:05;98581.34;;;1.72;100.00
57114;BME280;42994;51.606;9.988;2022-09-30T06:53:35;98588.41;;;1.71;100.00
57114;BME280;42994;51.606;9.988;2022-09-30T06:56:01;98582.72;;;1.76;100.00
57114;BME280;42994;51.606;9.988;2022-09-30T06:58:29;98587.56;;;1.81;100.00
57114;BME280;42994;51.606;9.988;2022-09-30T07:00:57;98597.25;;;1.90;100.00
57114;BME280;42994;51.606;9.988;2022-09-30T07:03:27;98599.31;;;1.96;100.00
57114;BME280;42994;51.606;9.988;2022-09-30T07:05:55;98600.13;;;1.97;100.00
57114;BME280;42994;51.606;9.988;2022-09-30T07:08:23;98611.25;;;2.00;100.00
57114;BME280;42994;51.606;9.988;2022-09-30T07:10:53;98616.78;;;2.07;100.00
57114;BME280;42994;51.606;9.988;2022-09-30T07:13:20;98610.06;;;2.13;100.00
57114;BME280;42994;51.606;9.988;2022-09-30T07:15:47;98617.66;;;2.25;100.00
57114;BME280;42994;51.606;9.988;2022-09-30T07:18:16;98619.47;;;2.25;100.00
57114;BME280;42994;51.606;9.988;2022-09-30T07:20:49;98620.09;;;2.37;100.00
57114;BME280;42994;51.606;9.988;2022-09-30T07:23:16;98634.63;;;2.50;100.00
57114;BME280;42994;51.606;9.988;2022-09-30T07:25:50;98631.38;;;2.75;100.00
57114;BME280;42994;51.606;9.988;2022-09-30T07:28:18;98631.69;;;2.89;100.00
57114;BME280;42994;51.606;9.988;2022-09-30T07:30:45;98631.09;;;2.96;100.00
57114;BME280;42994;51.606;9.988;2022-09-30T07:33:12;98641.31;;;2.91;100.00
57114;BME280;42994;51.606;9.988;2022-09-30T07:35:48;98641.84;;;2.94;100.00
57114;BME280;42994;51.606;9.988;2022-09-30T07:38:16;98647.72;;;3.06;100.00
57114;BME280;42994;51.606;9.988;2022-09-30T07:40:50;98639.66;;;3.16;100.00
57114;BME280;42994;51.606;9.988;2022-09-30T07:43:17;98636.72;;;3.19;100.00
57114;BME280;42994;51.606;9.988;2022-09-30T07:45:46;98639.31;;;3.29;100.00
57114;BME280;42994;51.606;9.988;2022-09-30T07:48:13;98647.16;;;3.38;100.00
57114;BME280;42994;51.606;9.988;2022-09-30T07:51:09;98647.38;;;3.45;100.00
57114;BME280;42994;51.606;9.988;2022-09-30T07:53:36;98655.56;;;3.60;100.00
57114;BME280;42994;51.606;9.988;2022-09-30T07:56:03;98662.25;;;3.72;100.00
57114;BME280;42994;51.606;9.988;2022-09-30T07:58:31;98663.81;;;3.83;100.00
57114;BME280;42994;51.606;9.988;2022-09-30T08:00:57;98671.47;;;3.86;100.00
57114;BME280;42994;51.606;9.988;2022-09-30T08:03:24;98666.88;;;3.96;100.00
57114;BME280;42994;51.606;9.988;2022-09-30T08:05:51;98662.56;;;3.95;100.00
57114;BME280;42994;51.606;9.988;2022-09-30T08:08:19;98669.78;;;4.19;100.00
57114;BME280;42994;51.606;9.988;2022-09-30T08:10:46;98687.59;;;4.27;100.00
57114;BME280;42994;51.606;9.988;2022-09-30T08:13:13;98684.19;;;4.51;100.00
57114;BME280;42994;51.606;9.988;2022-09-30T08:15:41;98685.22;;;4.58;100.00
57114;BME280;42994;51.606;9.988;2022-09-30T08:18:08;98691.16;;;4.52;100.00
57114;BME280;42994;51.606;9.988;2022-09-30T08:20:34;98687.75;;;4.76;100.00
57114;BME280;42994;51.606;9.988;2022-09-30T08:23:01;98698.69;;;4.73;100.00
57114;BME280;42994;51.606;9.988;2022-09-30T08:25:29;98689.09;;;4.80;100.00
57114;BME280;42994;51.606;9.988;2022-09-30T08:27:56;98691.44;;;5.00;100.00
57114;BME280;42994;51.606;9.988;2022-09-30T08:30:22;98702.09;;;5.08;100.00
57114;BME280;42994;51.606;9.988;2022-09-30T08:32:49;98703.44;;;5.20;100.00
57114;BME280;42994;51.606;9.988;2022-09-30T08:35:16;98704.91;;;5.23;100.00
57114;BME280;42994;51.606;9.988;2022-09-30T08:37:42;98709.75;;;5.44;100.00
57114;BME280;42994;51.606;9.988;2022-09-30T08:40:17;98715.72;;;5.46;100.00
57114;BME280;42994;51.606;9.988;2022-09-30T08:42:58;98717.06;;;5.58;100.00
57114;BME280;42994;51.606;9.988;2022-09-30T08:45:36;98719.19;;;5.80;100.00
57114;BME280;42994;51.606;9.988;2022-09-30T08:48:17;98718.03;;;5.99;100.00
57114;BME280;42994;51.606;9.988;2022-09-30T08:50:52;98727.25;;;6.35;100.00
57114;BME280;42994;51.606;9.988;2022-09-30T08:53:25;98721.66;;;6.62;100.00
57114;BME280;42994;51.606;9.988;2022-09-30T08:55:56;98725.38;;;6.44;100.00
57114;BME280;42994;51.606;9.988;2022-09-30T08:58:29;98716.06;;;6.48;100.00
57114;BME280;42994;51.606;9.988;2022-09-30T09:00:58;98719.13;;;6.68;100.00
57114;BME280;42994;51.606;9.988;2022-09-30T09:03:28;98716.47;;;6.68;100.00
57114;BME280;42994;51.606;9.988;2022-09-30T09:06:07;98715.75;;;6.83;100.00
57114;BME280;42994;51.606;9.988;2022-09-30T09:09:02;98714.03;;;6.90;100.00
57114;BME280;42994;51.606;9.988;2022-09-30T09:11:44;98717.16;;;7.25;100.00
57114;BME280;42994;51.606;9.988;2022-09-30T09:14:22;98709.75;;;7.50;100.00
57114;BME280;42994;51.606;9.988;2022-09-30T09:17:02;98708.19;;;7.79;100.00
57114;BME280;42994;51.606;9.988;2022-09-30T09:19:36;98703.09;;;8.07;100.00
57114;BME280;42994;51.606;9.988;2022-09-30T09:22:03;98696.00;;;8.29;100.00
57114;BME280;42994;51.606;9.988;2022-09-30T09:24:35;98691.75;;;8.35;100.00
57114;BME280;42994;51.606;9.988;2022-09-30T09:27:15;98688.81;;;8.44;100.00
57114;BME280;42994;51.606;9.988;2022-09-30T09:29:52;98685.94;;;8.97;100.00
57114;BME280;42994;51.606;9.988;2022-09-30T09:32:23;98687.63;;;8.98;100.00
57114;BME280;42994;51.606;9.988;2022-09-30T09:34:54;98684.63;;;9.08;100.00
57114;BME280;42994;51.606;9.988;2022-09-30T09:37:32;98671.41;;;8.85;100.00
57114;BME280;42994;51.606;9.988;2022-09-30T09:40:26;98658.72;;;8.87;100.00
57114;BME280;42994;51.606;9.988;2022-09-30T09:43:05;98655.94;;;9.17;100.00
57114;BME280;42994;51.606;9.988;2022-09-30T09:45:41;98639.72;;;9.25;100.00
57114;BME280;42994;51.606;9.988;2022-09-30T09:48:12;98628.75;;;9.41;100.00
57114;BME280;42994;51.606;9.988;2022-09-30T09:50:48;98623.91;;;9.52;100.00
57114;BME280;42994;51.606;9.988;2022-09-30T09:53:33;98620.78;;;9.48;100.00
57114;BME280;42994;51.606;9.988;2022-09-30T09:56:12;98624.50;;;9.75;100.00
57114;BME280;42994;51.606;9.988;2022-09-30T09:59:07;98613.00;;;9.81;100.00
57114;BME280;42994;51.606;9.988;2022-09-30T10:01:38;98607.81;;;9.73;100.00
57114;BME280;42994;51.606;9.988;2022-09-30T10:04:14;98614.84;;;9.81;100.00
57114;BME280;42994;51.606;9.988;2022-09-30T10:06:48;98613.97;;;10.02;100.00
57114;BME280;42994;51.606;9.988;2022-09-30T10:09:24;98613.63;;;10.18;100.00
57114;BME280;42994;51.606;9.988;2022-09-30T10:12:24;98610.84;;;10.05;100.00
57114;BME280;42994;51.606;9.988;2022-09-30T10:14:57;98614.41;;;10.12;100.00
57114;BME280;42994;51.606;9.988;2022-09-30T10:17:28;98614.63;;;10.17;100.00
57114;BME280;42994;51.606;9.988;2022-09-30T10:19:59;98615.69;;;10.23;100.00
57114;BME280;42994;51.606;9.988;2022-09-30T10:22:28;98624.34;;;10.25;100.00
57114;BME280;42994;51.606;9.988;2022-09-30T10:25:20;98626.94;;;10.05;100.00
57114;BME280;42994;51.606;9.988;2022-09-30T10:27:49;98618.31;;;10.10;100.00
57114;BME280;42994;51.606;9.988;2022-09-30T10:30:39;98621.88;;;10.24;100.00
57114;BME280;42994;51.606;9.988;2022-09-30T10:33:21;98617.34;;;10.24;100.00
57114;BME280;42994;51.606;9.988;2022-09-30T10:38:36;98618.88;;;10.40;100.00
57114;BME280;42994;51.606;9.988;2022-09-30T10:41:10;98621.13;;;10.36;100.00
57114;BME280;42994;51.606;9.988;2022-09-30T10:43:41;98624.56;;;10.72;100.00
57114;BME280;42994;51.606;9.988;2022-09-30T10:46:08;98623.72;;;10.65;100.00
57114;BME280;42994;51.606;9.988;2022-09-30T10:48:37;98615.47;;;10.73;100.00
57114;BME280;42994;51.606;9.988;2022-09-30T10:51:21;98619.16;;;10.65;100.00
57114;BME280;42994;51.606;9.988;2022-09-30T10:53:49;98615.09;;;10.83;100.00
57114;BME280;42994;51.606;9.988;2022-09-30T10:56:32;98623.53;;;10.66;100.00
57114;BME280;42994;51.606;9.988;2022-09-30T10:58:59;98615.06;;;10.63;100.00
57114;BME280;42994;51.606;9.988;2022-09-30T11:01:31;98616.78;;;10.97;100.00
57114;BME280;42994;51.606;9.988;2022-09-30T11:04:06;98613.25;;;10.83;100.00
57114;BME280;42994;51.606;9.988;2022-09-30T11:06:38;98617.22;;;11.01;100.00
57114;BME280;42994;51.606;9.988;2022-09-30T11:09:08;98617.22;;;11.14;100.00
57114;BME280;42994;51.606;9.988;2022-09-30T11:11:38;98613.91;;;11.12;100.00
57114;BME280;42994;51.606;9.988;2022-09-30T11:14:24;98611.84;;;11.07;100.00
57114;BME280;42994;51.606;9.988;2022-09-30T11:17:01;98615.16;;;11.23;100.00
57114;BME280;42994;51.606;9.988;2022-09-30T11:19:38;98613.31;;;11.10;100.00
57114;BME280;42994;51.606;9.988;2022-09-30T11:22:22;98613.09;;;11.18;100.00
57114;BME280;42994;51.606;9.988;2022-09-30T11:24:53;98613.91;;;11.25;100.00
57114;BME280;42994;51.606;9.988;2022-09-30T11:27:30;98613.50;;;11.22;100.00
57114;BME280;42994;51.606;9.988;2022-09-30T11:30:08;98614.31;;;11.22;100.00
57114;BME280;42994;51.606;9.988;2022-09-30T11:32:47;98611.25;;;11.52;100.00
57114;BME280;42994;51.606;9.988;2022-09-30T11:35:27;98611.25;;;11.32;100.00
57114;BME280;42994;51.606;9.988;2022-09-30T11:38:09;98611.84;;;11.41;100.00
57114;BME280;42994;51.606;9.988;2022-09-30T11:40:41;98615.56;;;11.60;100.00
57114;BME280;42994;51.606;9.988;2022-09-30T11:43:19;98613.94;;;11.52;100.00
57114;BME280;42994;51.606;9.988;2022-09-30T11:46:10;98610.41;;;11.65;100.00
57114;BME280;42994;51.606;9.988;2022-09-30T11:48:52;98614.75;;;11.59;100.00
57114;BME280;42994;51.606;9.988;2022-09-30T11:51:31;98617.59;;;11.64;100.00
57114;BME280;42994;51.606;9.988;2022-09-30T11:54:14;98612.03;;;11.72;100.00
57114;BME280;42994;51.606;9.988;2022-09-30T11:56:49;98621.56;;;11.68;100.00
57114;BME280;42994;51.606;9.988;2022-09-30T11:59:22;98622.38;;;11.76;100.00
57114;BME280;42994;51.606;9.988;2022-09-30T12:01:53;98620.72;;;11.61;100.00
57114;BME280;42994;51.606;9.988;2022-09-30T12:04:24;98616.16;;;11.55;100.00
57114;BME280;42994;51.606;9.988;2022-09-30T12:06:59;98621.53;;;11.62;100.00
57114;BME280;42994;51.606;9.988;2022-09-30T12:09:31;98614.31;;;11.62;100.00
57114;BME280;42994;51.606;9.988;2022-09-30T12:12:03;98615.97;;;11.63;100.00
57114;BME280;42994;51.606;9.988;2022-09-30T12:14:42;98607.69;;;11.85;100.00
57114;BME280;42994;51.606;9.988;2022-09-30T12:17:17;98606.25;;;11.96;100.00
57114;BME280;42994;51.606;9.988;2022-09-30T12:19:47;98608.63;;;12.24;100.00
57114;BME280;42994;51.606;9.988;2022-09-30T12:22:20;98596.84;;;12.25;100.00
57114;BME280;42994;51.606;9.988;2022-09-30T12:24:49;98596.88;;;12.11;100.00
57114;BME280;42994;51.606;9.988;2022-09-30T12:27:22;98595.81;;;12.26;100.00
57114;BME280;42994;51.606;9.988;2022-09-30T12:29:56;98593.56;;;12.16;100.00
57114;BME280;42994;51.606;9.988;2022-09-30T12:33:10;98587.31;;;12.29;100.00
57114;BME280;42994;51.606;9.988;2022-09-30T12:35:57;98597.25;;;12.28;100.00
57114;BME280;42994;51.606;9.988;2022-09-30T12:38:58;98591.09;;;12.21;100.00
57114;BME280;42994;51.606;9.988;2022-09-30T12:41:49;98586.53;;;12.22;100.00
57114;BME280;42994;51.606;9.988;2022-09-30T12:44:46;98590.22;;;12.27;100.00
57114;BME280;42994;51.606;9.988;2022-09-30T12:47:25;98586.47;;;12.35;100.00
57114;BME280;42994;51.606;9.988;2022-09-30T12:49:56;98590.50;;;12.58;100.00
57114;BME280;42994;51.606;9.988;2022-09-30T12:52:25;98588.81;;;12.63;100.00
57114;BME280;42994;51.606;9.988;2022-09-30T12:55:01;98585.34;;;12.56;100.00
57114;BME280;42994;51.606;9.988;2022-09-30T12:57:33;98587.13;;;12.69;100.00
57114;BME280;42994;51.606;9.988;2022-09-30T13:00:05;98584.63;;;12.74;100.00
57114;BME280;42994;51.606;9.988;2022-09-30T13:02:40;98578.09;;;12.57;100.00
57114;BME280;42994;51.606;9.988;2022-09-30T13:05:46;98572.06;;;12.61;100.00
57114;BME280;42994;51.606;9.988;2022-09-30T13:08:45;98580.47;;;12.72;100.00
57114;BME280;42994;51.606;9.988;2022-09-30T13:11:31;98568.50;;;12.67;100.00
57114;BME280;42994;51.606;9.988;2022-09-30T13:14:09;98581.16;;;12.92;100.00
57114;BME280;42994;51.606;9.988;2022-09-30T13:17:22;98569.69;;;12.78;100.00
57114;BME280;42994;51.606;9.988;2022-09-30T13:19:50;98571.59;;;12.71;100.00
57114;BME280;42994;51.606;9.988;2022-09-30T13:22:41;98575.09;;;12.72;100.00
57114;BME280;42994;51.606;9.988;2022-09-30T13:25:12;98579.25;;;12.74;100.00
57114;BME280;42994;51.606;9.988;2022-09-30T13:27:42;98569.28;;;12.81;100.00
57114;BME280;42994;51.606;9.988;2022-09-30T13:33:40;98566.66;;;12.68;100.00
57114;BME280;42994;51.606;9.988;2022-09-30T13:36:16;98574.56;;;12.95;100.00